Time;durP1;ratioP1;P1;durP2;ratioP2;P2;SDS_P1;SDS_P2;PMS_P1;PMS_P2;Temp;Humidity;BMP_temperature;BMP_pressure;BME280_temperature;BME280_humidity;BME280_pressure;Samples;Min_cycle;Max_cycle;Signal;HPM_P1;HPM_P2
2021/12/30 00:01:14;;;;;;;9.40;3.90;;;15.00;99.90;;;;;;5011478;28;20632;-78
2021/12/30 00:03:42;;;;;;;8.83;2.10;;;15.00;99.90;;;;;;5011444;28;20666;-78
2021/12/30 00:06:08;;;;;;;12.27;2.83;;;15.00;99.90;;;;;;5011444;28;20719;-78
2021/12/30 00:08:34;;;;;;;10.03;3.23;;;15.00;99.90;;;;;;4996615;28;20581;-78
2021/12/30 00:11:00;;;;;;;8.47;3.03;;;15.00;99.90;;;;;;4997867;28;20592;-79
2021/12/30 00:13:27;;;;;;;7.60;2.30;;;15.00;99.90;;;;;;4981147;28;20617;-78
2021/12/30 00:15:54;;;;;;;13.00;2.40;;;14.90;99.90;;;;;;4981694;28;20619;-78
2021/12/30 00:18:20;;;;;;;10.27;2.73;;;14.90;99.90;;;;;;5015431;28;20569;-79
2021/12/30 00:20:47;;;;;;;9.80;3.00;;;14.90;99.90;;;;;;5015248;28;20609;-79
2021/12/30 00:23:13;;;;;;;10.07;2.30;;;14.90;99.90;;;;;;5015020;28;21156;-79
2021/12/30 00:25:41;;;;;;;10.03;2.40;;;14.90;99.90;;;;;;5002665;28;20620;-79
2021/12/30 00:28:23;;;;;;;12.30;2.43;;;14.90;99.90;;;;;;5013844;28;20588;-78
2021/12/30 00:30:51;;;;;;;9.37;3.07;;;14.90;99.90;;;;;;4997726;28;20573;-78
2021/12/30 00:33:17;;;;;;;8.60;2.40;;;14.90;99.90;;;;;;4997173;28;20600;-79
2021/12/30 00:35:43;;;;;;;10.23;3.20;;;14.80;99.90;;;;;;5015242;28;20581;-78
2021/12/30 00:38:09;;;;;;;8.70;3.53;;;14.80;99.90;;;;;;4997248;28;20991;-79
2021/12/30 00:40:37;;;;;;;13.47;3.53;;;14.80;99.90;;;;;;5014927;28;20956;-78
2021/12/30 00:43:05;;;;;;;8.60;2.87;;;14.80;99.90;;;;;;5014390;28;20608;-79
2021/12/30 00:45:33;;;;;;;7.37;3.77;;;14.80;99.90;;;;;;5014811;28;20625;-78
2021/12/30 00:47:59;;;;;;;9.50;2.70;;;14.80;99.90;;;;;;5014833;28;20581;-79
2021/12/30 00:50:27;;;;;;;10.10;2.97;;;14.80;99.90;;;;;;5015073;28;20608;-79
2021/12/30 00:52:53;;;;;;;8.50;2.37;;;14.70;99.90;;;;;;4997466;28;20616;-79
2021/12/30 00:55:20;;;;;;;7.53;2.37;;;14.80;99.90;;;;;;5015027;28;20910;-79
2021/12/30 00:57:46;;;;;;;8.73;2.23;;;14.80;99.90;;;;;;5014755;28;20592;-79
2021/12/30 01:00:14;;;;;;;13.60;2.70;;;14.80;99.90;;;;;;5015642;28;20589;-79
2021/12/30 01:02:40;;;;;;;10.73;2.80;;;14.80;99.90;;;;;;5017969;28;20612;-79
2021/12/30 01:05:07;;;;;;;9.53;2.30;;;14.80;99.90;;;;;;4996594;28;20584;-79
2021/12/30 01:10:10;;;;;;;7.53;2.60;;;14.80;99.90;;;;;;4992933;28;20723;-76
2021/12/30 01:12:36;;;;;;;7.30;2.23;;;14.80;99.90;;;;;;4995410;28;20698;-76
2021/12/30 01:15:08;;;;;;;11.73;4.23;;;14.90;99.90;;;;;;4995380;28;20926;-75
2021/12/30 01:17:57;;;;;;;9.20;1.80;;;14.90;99.90;;;;;;4977826;28;20562;-76
2021/12/30 01:20:23;;;;;;;9.03;2.10;;;14.80;99.90;;;;;;4993721;28;20622;-76
2021/12/30 01:22:51;;;;;;;8.97;3.00;;;14.80;99.90;;;;;;4977226;28;20620;-77
2021/12/30 01:25:17;;;;;;;10.97;2.50;;;14.80;99.90;;;;;;4976967;28;21078;-75
2021/12/30 01:27:44;;;;;;;11.43;2.90;;;14.80;99.90;;;;;;4994143;28;20614;-76
2021/12/30 01:30:14;;;;;;;4.90;2.00;;;14.80;99.90;;;;;;4993931;28;20601;-77
2021/12/30 01:32:40;;;;;;;10.60;2.70;;;14.80;99.90;;;;;;4993951;28;20703;-76
2021/12/30 01:35:08;;;;;;;9.27;1.97;;;14.80;99.90;;;;;;4994239;28;20610;-76
2021/12/30 01:37:35;;;;;;;6.80;1.57;;;14.80;99.90;;;;;;4993813;28;20591;-76
2021/12/30 01:40:01;;;;;;;7.53;2.23;;;14.80;99.90;;;;;;4994130;28;20594;-77
2021/12/30 01:42:27;;;;;;;10.60;2.23;;;14.80;99.90;;;;;;4992793;28;20604;-76
2021/12/30 01:44:53;;;;;;;6.27;2.13;;;14.90;99.90;;;;;;4975962;28;20682;-76
2021/12/30 01:47:24;;;;;;;10.60;2.77;;;14.90;99.90;;;;;;4976462;28;21200;-76
2021/12/30 01:49:51;;;;;;;4.90;2.23;;;14.90;99.90;;;;;;4976310;28;20716;-77
2021/12/30 01:52:17;;;;;;;7.23;2.80;;;14.90;99.90;;;;;;4992360;28;20598;-77
2021/12/30 01:54:46;;;;;;;10.90;1.97;;;14.90;99.90;;;;;;4993547;28;20932;-76
2021/12/30 01:57:12;;;;;;;11.03;2.70;;;15.00;99.90;;;;;;4975673;28;20960;-76
2021/12/30 01:59:38;;;;;;;8.50;2.37;;;15.00;99.90;;;;;;4993722;28;20610;-77
2021/12/30 02:02:04;;;;;;;6.27;1.83;;;15.00;99.90;;;;;;4993924;28;20214;-77
2021/12/30 02:04:30;;;;;;;7.50;2.37;;;15.10;99.90;;;;;;4993590;28;20178;-77
2021/12/30 02:06:57;;;;;;;8.70;2.17;;;15.10;99.90;;;;;;4993801;28;20713;-77
2021/12/30 02:09:23;;;;;;;10.37;2.40;;;15.10;99.90;;;;;;4993521;28;20626;-77
2021/12/30 02:11:49;;;;;;;8.00;2.27;;;15.20;99.90;;;;;;4993634;28;20717;-76
2021/12/30 02:14:16;;;;;;;5.17;1.80;;;15.20;99.90;;;;;;4993529;28;20661;-77
2021/12/30 02:16:42;;;;;;;6.10;2.23;;;15.20;99.90;;;;;;4993645;28;20171;-76
2021/12/30 02:19:08;;;;;;;7.50;1.80;;;15.20;99.90;;;;;;4993477;28;20949;-76
2021/12/30 02:21:34;;;;;;;3.30;1.40;;;15.20;99.90;;;;;;4993384;28;20574;-76
2021/12/30 02:24:00;;;;;;;8.00;1.50;;;15.20;99.90;;;;;;4975902;28;20930;-76
2021/12/30 02:26:26;;;;;;;7.13;2.73;;;15.20;99.90;;;;;;4993306;28;20206;-77
2021/12/30 02:28:52;;;;;;;7.53;1.80;;;15.20;99.90;;;;;;4992007;28;20689;-76
2021/12/30 02:31:26;;;;;;;4.77;2.27;;;15.30;99.90;;;;;;4992255;28;21109;-76
2021/12/30 02:33:52;;;;;;;7.60;2.80;;;15.30;99.90;;;;;;4993133;28;20571;-76
2021/12/30 02:36:27;;;;;;;9.70;2.20;;;15.30;99.90;;;;;;4993313;28;20964;-76
2021/12/30 02:38:53;;;;;;;5.23;1.63;;;15.30;99.90;;;;;;4993409;28;20696;-77
2021/12/30 02:41:19;;;;;;;6.60;1.87;;;15.40;99.90;;;;;;4993125;28;20661;-76
2021/12/30 02:43:47;;;;;;;7.10;2.03;;;15.40;99.90;;;;;;4992902;28;20636;-76
2021/12/30 02:46:14;;;;;;;10.47;2.83;;;15.40;99.90;;;;;;4993027;28;20974;-76
2021/12/30 02:48:41;;;;;;;6.40;1.70;;;15.50;99.90;;;;;;4992953;28;20633;-76
2021/12/30 02:51:10;;;;;;;6.30;1.93;;;15.50;99.90;;;;;;4993022;28;20905;-76
2021/12/30 02:53:36;;;;;;;8.30;1.50;;;15.50;99.90;;;;;;4991583;28;20932;-76
2021/12/30 02:56:03;;;;;;;8.90;2.13;;;15.50;99.90;;;;;;4993132;28;20566;-77
2021/12/30 02:58:29;;;;;;;7.67;1.80;;;15.60;99.90;;;;;;4992865;28;20590;-77
2021/12/30 03:01:02;;;;;;;9.07;1.97;;;15.60;99.90;;;;;;4993407;28;20578;-76
2021/12/30 03:03:28;;;;;;;4.93;1.43;;;15.60;99.90;;;;;;4991273;28;20179;-77
2021/12/30 03:05:59;;;;;;;5.30;2.17;;;15.70;99.90;;;;;;4975198;28;21036;-76
2021/12/30 03:08:26;;;;;;;4.07;1.33;;;15.70;99.90;;;;;;4992808;28;20205;-77
2021/12/30 03:10:51;;;;;;;7.40;2.33;;;15.70;99.90;;;;;;4993157;28;20673;-77
2021/12/30 03:13:19;;;;;;;5.73;2.63;;;15.70;99.90;;;;;;4993032;28;20621;-77
2021/12/30 03:15:46;;;;;;;5.20;1.90;;;15.70;99.90;;;;;;4993028;28;20659;-76
2021/12/30 03:18:13;;;;;;;6.40;1.70;;;15.70;99.90;;;;;;4992777;28;20714;-76
2021/12/30 03:20:40;;;;;;;8.60;1.70;;;15.70;99.90;;;;;;4993396;28;20593;-76
2021/12/30 03:23:05;;;;;;;9.53;1.83;;;15.70;99.90;;;;;;5001047;28;20601;-77
2021/12/30 03:25:31;;;;;;;3.90;2.50;;;15.70;99.90;;;;;;5000101;28;20649;-76
2021/12/30 03:27:58;;;;;;;4.60;1.67;;;15.70;99.90;;;;;;4986053;28;20752;-76
2021/12/30 03:30:24;;;;;;;3.83;1.93;;;15.70;99.90;;;;;;4987483;28;20624;-76
2021/12/30 03:32:50;;;;;;;6.57;2.00;;;15.70;99.90;;;;;;4999072;28;20705;-76
2021/12/30 03:35:17;;;;;;;5.30;2.63;;;15.70;99.90;;;;;;5003699;28;20582;-77
2021/12/30 03:37:43;;;;;;;6.97;1.77;;;15.70;99.90;;;;;;5000344;28;20578;-77
2021/12/30 03:40:14;;;;;;;4.80;1.50;;;15.70;99.90;;;;;;5003265;28;20570;-77
2021/12/30 03:42:40;;;;;;;3.70;1.30;;;15.70;99.90;;;;;;4996658;28;20665;-77
2021/12/30 03:45:08;;;;;;;5.20;1.50;;;15.70;99.90;;;;;;4979388;28;20586;-75
2021/12/30 03:47:38;;;;;;;3.67;1.20;;;15.60;99.90;;;;;;4996857;28;20637;-76
2021/12/30 03:50:06;;;;;;;8.13;1.10;;;15.60;99.90;;;;;;4997000;28;20567;-75
2021/12/30 03:52:32;;;;;;;4.20;1.03;;;15.60;99.90;;;;;;4997180;28;20630;-76
2021/12/30 03:54:57;;;;;;;3.33;1.00;;;15.60;99.90;;;;;;4996436;28;20586;-76
2021/12/30 03:57:24;;;;;;;7.63;1.70;;;15.60;99.90;;;;;;4978898;28;20167;-75
2021/12/30 03:59:49;;;;;;;5.03;1.40;;;15.60;99.90;;;;;;4996204;28;20199;-75
2021/12/30 04:02:15;;;;;;;3.13;2.10;;;15.60;99.90;;;;;;4996068;28;21002;-76
2021/12/30 04:04:41;;;;;;;4.27;1.57;;;15.60;99.90;;;;;;4995972;28;20175;-76
2021/12/30 04:07:07;;;;;;;3.37;1.60;;;15.60;99.90;;;;;;4996062;28;20290;-76
2021/12/30 04:09:33;;;;;;;3.60;1.20;;;15.60;99.90;;;;;;4995839;28;20725;-76
2021/12/30 04:11:58;;;;;;;3.13;1.10;;;15.60;99.90;;;;;;4995974;28;20614;-76
2021/12/30 04:14:26;;;;;;;2.50;1.40;;;15.60;99.90;;;;;;4995565;28;20234;-76
2021/12/30 04:16:53;;;;;;;3.03;1.20;;;15.60;99.90;;;;;;4995954;28;20175;-76
2021/12/30 04:19:19;;;;;;;4.13;1.10;;;15.60;99.90;;;;;;4995650;28;21255;-76
2021/12/30 04:21:44;;;;;;;4.00;1.00;;;15.60;99.90;;;;;;4995613;28;20594;-76
2021/12/30 04:24:10;;;;;;;2.77;1.00;;;15.60;99.90;;;;;;4995376;28;20620;-76
2021/12/30 04:26:36;;;;;;;2.20;1.17;;;15.50;99.90;;;;;;4995623;28;20199;-76
2021/12/30 04:29:04;;;;;;;3.30;1.87;;;15.50;99.90;;;;;;4995366;28;20978;-76
2021/12/30 04:31:31;;;;;;;3.90;1.20;;;15.50;99.90;;;;;;4995700;28;20159;-76
2021/12/30 04:33:57;;;;;;;2.17;1.10;;;15.50;99.90;;;;;;4995211;28;20570;-76
2021/12/30 04:36:23;;;;;;;3.90;1.37;;;15.40;99.90;;;;;;4978095;28;20594;-76
2021/12/30 04:38:49;;;;;;;1.50;0.93;;;15.40;99.90;;;;;;4995301;28;20672;-76
2021/12/30 04:41:15;;;;;;;2.90;1.10;;;15.40;99.90;;;;;;4978042;28;20573;-77
2021/12/30 04:43:40;;;;;;;4.00;1.00;;;15.40;99.90;;;;;;4995239;28;20697;-76
2021/12/30 04:46:06;;;;;;;4.97;1.30;;;15.40;99.90;;;;;;4977698;28;20226;-76
2021/12/30 04:48:32;;;;;;;4.63;1.27;;;15.40;99.90;;;;;;4995173;28;20601;-76
2021/12/30 04:50:58;;;;;;;2.77;1.57;;;15.30;99.90;;;;;;4995277;28;20668;-76
2021/12/30 04:53:24;;;;;;;2.70;1.60;;;15.30;99.90;;;;;;4994829;28;21130;-76
2021/12/30 04:55:50;;;;;;;3.20;1.60;;;15.30;99.90;;;;;;4994177;28;20175;-76
2021/12/30 04:58:17;;;;;;;4.30;1.50;;;15.30;99.90;;;;;;4995107;28;21160;-76
2021/12/30 05:00:44;;;;;;;5.00;1.60;;;15.30;99.90;;;;;;4995049;28;20609;-76
2021/12/30 05:05:48;;;;;;;5.77;1.30;;;15.20;99.90;;;;;;4994736;28;20732;-76
2021/12/30 05:08:16;;;;;;;4.73;1.37;;;15.20;99.90;;;;;;4977307;28;20252;-77
2021/12/30 05:10:42;;;;;;;4.10;1.50;;;15.20;99.90;;;;;;4995261;28;20995;-77
2021/12/30 05:13:08;;;;;;;1.83;1.00;;;15.20;99.90;;;;;;4994758;28;20569;-76
2021/12/30 05:15:35;;;;;;;1.63;0.90;;;15.30;99.90;;;;;;4994976;28;20502;-77
2021/12/30 05:18:02;;;;;;;1.30;0.80;;;15.30;99.90;;;;;;4993463;28;20614;-76
2021/12/30 05:20:27;;;;;;;1.93;0.70;;;15.30;99.90;;;;;;4994701;28;20569;-76
2021/12/30 05:22:53;;;;;;;1.53;0.70;;;15.30;99.90;;;;;;4976822;28;20590;-76
2021/12/30 05:25:20;;;;;;;1.13;0.60;;;15.30;99.90;;;;;;4994605;28;20198;-76
2021/12/30 05:27:47;;;;;;;1.83;0.60;;;15.40;99.90;;;;;;4994929;28;20656;-76
2021/12/30 05:30:15;;;;;;;1.10;0.50;;;15.40;99.90;;;;;;4995035;28;20578;-76
2021/12/30 05:32:40;;;;;;;1.00;0.50;;;15.50;99.90;;;;;;4994527;28;21140;-77
2021/12/30 05:35:08;;;;;;;1.40;0.50;;;15.50;99.90;;;;;;4994547;28;20574;-77
2021/12/30 05:37:34;;;;;;;1.53;0.50;;;15.60;99.90;;;;;;4993280;28;20622;-77
2021/12/30 05:40:00;;;;;;;1.10;0.50;;;15.60;99.90;;;;;;4994434;28;20633;-77
2021/12/30 05:42:26;;;;;;;1.20;0.50;;;15.60;99.90;;;;;;4994117;28;20178;-77
2021/12/30 05:44:53;;;;;;;1.20;0.50;;;15.70;99.90;;;;;;4994152;28;20582;-77
2021/12/30 05:47:20;;;;;;;1.10;0.50;;;15.70;99.90;;;;;;4993985;28;20634;-76
2021/12/30 05:49:46;;;;;;;0.90;0.47;;;15.80;99.90;;;;;;4994315;28;20598;-77
2021/12/30 05:52:12;;;;;;;0.90;0.40;;;15.80;99.90;;;;;;4994065;28;20563;-77
2021/12/30 05:54:39;;;;;;;0.97;0.37;;;15.90;99.90;;;;;;4993723;28;20578;-77
2021/12/30 05:57:05;;;;;;;0.97;0.40;;;15.90;99.90;;;;;;4994308;28;20585;-77
2021/12/30 05:59:31;;;;;;;0.90;0.40;;;16.00;99.90;;;;;;4994080;28;20609;-76
2021/12/30 06:01:57;;;;;;;0.90;0.40;;;16.00;99.90;;;;;;4994316;28;21030;-76
2021/12/30 06:04:23;;;;;;;1.07;0.40;;;16.00;99.90;;;;;;4994413;28;20621;-76
2021/12/30 06:06:48;;;;;;;0.90;0.40;;;16.00;99.90;;;;;;4994963;28;20239;-76
2021/12/30 06:09:14;;;;;;;0.90;0.40;;;16.10;99.90;;;;;;4978701;28;20203;-76
2021/12/30 06:11:40;;;;;;;1.00;0.40;;;16.10;99.90;;;;;;4993534;28;20167;-76
2021/12/30 06:14:06;;;;;;;1.00;0.40;;;16.20;99.90;;;;;;4976077;28;20167;-76
2021/12/30 06:16:33;;;;;;;0.90;0.40;;;16.20;99.90;;;;;;4993982;28;20500;-75
2021/12/30 06:18:59;;;;;;;1.53;0.40;;;16.20;99.90;;;;;;4993541;28;20289;-75
2021/12/30 06:21:25;;;;;;;0.90;0.50;;;16.30;99.90;;;;;;4993242;28;20566;-76
2021/12/30 06:23:52;;;;;;;1.10;0.40;;;16.30;99.90;;;;;;4993359;28;20610;-76
2021/12/30 06:26:18;;;;;;;0.90;0.40;;;16.30;99.90;;;;;;4992182;28;20626;-76
2021/12/30 06:28:45;;;;;;;0.90;0.40;;;16.30;99.90;;;;;;4992936;28;20729;-75
2021/12/30 06:31:11;;;;;;;0.90;0.40;;;16.30;99.90;;;;;;4975279;28;20912;-76
2021/12/30 06:33:37;;;;;;;0.80;0.40;;;16.40;99.90;;;;;;4992820;28;20585;-75
2021/12/30 06:36:04;;;;;;;1.07;0.60;;;16.40;99.90;;;;;;4992834;28;20230;-76
2021/12/30 06:38:29;;;;;;;1.37;0.50;;;16.40;99.90;;;;;;4993112;28;20187;-76
2021/12/30 06:40:55;;;;;;;0.90;0.50;;;16.40;99.90;;;;;;4993023;28;20566;-76
2021/12/30 06:43:21;;;;;;;1.00;0.50;;;16.40;99.90;;;;;;4992256;28;20607;-76
2021/12/30 06:45:47;;;;;;;0.90;0.43;;;16.50;99.90;;;;;;4992760;28;20245;-75
2021/12/30 06:48:15;;;;;;;1.63;0.40;;;16.50;99.90;;;;;;4992512;28;20650;-76
2021/12/30 06:50:51;;;;;;;1.00;0.50;;;16.50;99.90;;;;;;4991617;28;20266;-76
2021/12/30 06:53:17;;;;;;;1.10;0.50;;;16.50;99.90;;;;;;4992740;28;20635;-76
2021/12/30 06:55:45;;;;;;;1.20;0.50;;;16.50;99.90;;;;;;4992584;28;20610;-76
2021/12/30 06:58:11;;;;;;;0.90;0.43;;;16.60;99.90;;;;;;4974840;28;20614;-76
2021/12/30 07:00:37;;;;;;;1.30;0.50;;;16.60;99.90;;;;;;4974917;28;20978;-76
2021/12/30 07:03:02;;;;;;;1.57;0.63;;;16.60;99.90;;;;;;4991740;28;20527;-76
2021/12/30 07:05:28;;;;;;;0.90;0.43;;;16.70;99.90;;;;;;4974112;28;21137;-76
2021/12/30 07:07:54;;;;;;;0.90;0.50;;;16.70;99.90;;;;;;4972657;28;20181;-75
2021/12/30 07:10:20;;;;;;;0.90;0.50;;;16.70;99.90;;;;;;4992069;28;20179;-76
2021/12/30 07:12:45;;;;;;;1.37;0.50;;;16.70;99.90;;;;;;4992016;28;20163;-76
2021/12/30 07:15:11;;;;;;;2.70;0.60;;;16.70;99.90;;;;;;4990620;28;20241;-76
2021/12/30 07:17:37;;;;;;;1.10;0.57;;;16.70;99.90;;;;;;4991424;28;20182;-75
2021/12/30 07:20:04;;;;;;;1.00;0.40;;;16.70;99.90;;;;;;4992080;28;20261;-76
2021/12/30 07:22:30;;;;;;;0.90;0.40;;;16.80;99.90;;;;;;4991849;28;20669;-76
2021/12/30 07:24:56;;;;;;;0.90;0.43;;;16.80;99.90;;;;;;4991711;28;21041;-76
2021/12/30 07:27:22;;;;;;;1.00;0.47;;;16.80;99.90;;;;;;4974413;28;20281;-76
2021/12/30 07:29:49;;;;;;;1.10;0.60;;;16.80;99.90;;;;;;4991604;28;20956;-76
2021/12/30 07:32:14;;;;;;;1.10;0.50;;;16.80;99.90;;;;;;4991819;28;20566;-76
2021/12/30 07:34:40;;;;;;;1.37;0.57;;;16.80;99.90;;;;;;4991396;28;20278;-76
2021/12/30 07:37:06;;;;;;;1.10;0.60;;;16.80;99.90;;;;;;4974165;28;20233;-76
2021/12/30 07:39:31;;;;;;;1.10;0.60;;;16.80;99.90;;;;;;4974284;28;20249;-76
2021/12/30 07:41:57;;;;;;;1.43;0.53;;;16.90;99.90;;;;;;4991250;28;20183;-76
2021/12/30 07:44:24;;;;;;;1.63;0.60;;;16.90;99.90;;;;;;4973937;28;20175;-76
2021/12/30 07:46:50;;;;;;;2.90;0.60;;;16.90;99.90;;;;;;4957988;28;20633;-75
2021/12/30 07:49:15;;;;;;;2.83;0.80;;;16.90;99.90;;;;;;4991519;28;20705;-76
2021/12/30 07:51:41;;;;;;;1.10;0.60;;;16.80;99.90;;;;;;4991251;28;20171;-76
2021/12/30 07:54:07;;;;;;;1.10;0.70;;;16.90;99.90;;;;;;4991448;28;20167;-76
2021/12/30 07:56:32;;;;;;;1.57;0.50;;;16.90;99.90;;;;;;4990513;28;20178;-75
2021/12/30 07:58:58;;;;;;;1.23;0.60;;;16.90;99.90;;;;;;4991742;28;20874;-76
2021/12/30 08:01:24;;;;;;;0.97;0.60;;;16.90;99.90;;;;;;4989675;28;20570;-76
2021/12/30 08:03:52;;;;;;;1.37;0.70;;;16.90;99.90;;;;;;4991122;28;20628;-75
2021/12/30 08:06:18;;;;;;;1.10;0.63;;;16.90;99.90;;;;;;4974176;28;20242;-76
2021/12/30 08:08:44;;;;;;;2.80;0.50;;;17.00;99.90;;;;;;4991634;28;21026;-74
2021/12/30 08:11:10;;;;;;;1.20;0.60;;;17.00;99.90;;;;;;4992055;28;20171;-74
2021/12/30 08:13:36;;;;;;;1.00;0.57;;;17.00;99.90;;;;;;4991452;28;20917;-74
2021/12/30 08:16:02;;;;;;;1.50;0.70;;;17.00;99.90;;;;;;4990306;28;20616;-75
2021/12/30 08:18:27;;;;;;;1.27;0.70;;;17.00;99.90;;;;;;4976636;28;20345;-74
2021/12/30 08:20:54;;;;;;;1.10;0.50;;;17.00;99.90;;;;;;4993223;28;20190;-76
2021/12/30 08:23:19;;;;;;;0.90;0.60;;;17.00;99.90;;;;;;4990310;28;20569;-76
2021/12/30 08:25:49;;;;;;;1.80;0.70;;;17.00;99.90;;;;;;4991813;28;20621;-77
2021/12/30 08:28:16;;;;;;;1.20;0.60;;;17.00;99.90;;;;;;4991695;28;20199;-76
2021/12/30 08:30:42;;;;;;;1.33;0.60;;;17.00;99.90;;;;;;4995542;28;20555;-77
2021/12/30 08:33:08;;;;;;;1.00;0.50;;;17.10;99.90;;;;;;4961768;28;21365;-77
2021/12/30 08:35:34;;;;;;;1.00;0.60;;;17.10;99.90;;;;;;4994277;28;21164;-76
2021/12/30 08:38:00;;;;;;;2.80;0.60;;;17.10;99.90;;;;;;4995069;28;20662;-77
2021/12/30 08:40:26;;;;;;;1.17;0.50;;;17.10;99.90;;;;;;4994215;28;20175;-77
2021/12/30 08:42:53;;;;;;;1.43;0.50;;;17.10;99.90;;;;;;4999049;28;21019;-76
2021/12/30 08:45:19;;;;;;;0.93;0.50;;;17.10;99.90;;;;;;4995307;28;20562;-76
2021/12/30 08:47:45;;;;;;;1.00;0.50;;;17.10;99.90;;;;;;4994713;28;20984;-76
2021/12/30 08:50:13;;;;;;;2.73;1.27;;;17.10;99.90;;;;;;4994980;28;20577;-78
2021/12/30 08:52:40;;;;;;;1.30;0.80;;;17.10;99.90;;;;;;4994741;28;20985;-76
2021/12/30 08:55:07;;;;;;;1.10;0.63;;;17.20;99.90;;;;;;4994472;28;20601;-76
2021/12/30 08:57:37;;;;;;;1.87;0.60;;;17.20;99.90;;;;;;4977454;28;20635;-75
2021/12/30 09:00:05;;;;;;;1.20;0.50;;;17.20;99.90;;;;;;4994780;28;20941;-75
2021/12/30 09:02:31;;;;;;;1.40;0.60;;;17.20;99.90;;;;;;4974884;28;20626;-75
2021/12/30 09:04:57;;;;;;;1.50;0.60;;;17.30;99.90;;;;;;4957548;28;20622;-75
2021/12/30 09:07:23;;;;;;;1.63;0.70;;;17.30;99.90;;;;;;4974241;28;20618;-75
2021/12/30 09:09:49;;;;;;;1.40;1.13;;;17.30;99.90;;;;;;4975116;28;20705;-75
2021/12/30 09:12:17;;;;;;;1.77;0.60;;;17.30;99.90;;;;;;4975266;28;20170;-75
2021/12/30 09:14:43;;;;;;;1.40;0.60;;;17.30;99.90;;;;;;4974837;28;20563;-75
2021/12/30 09:17:09;;;;;;;1.20;0.70;;;17.40;99.90;;;;;;4975191;28;20630;-75
2021/12/30 09:19:35;;;;;;;0.87;0.40;;;17.40;99.90;;;;;;4975365;28;20621;-74
2021/12/30 09:22:01;;;;;;;1.57;0.60;;;17.40;99.90;;;;;;4986804;28;20574;-74
2021/12/30 09:24:27;;;;;;;1.63;0.70;;;17.40;99.90;;;;;;4994289;28;20525;-74
2021/12/30 09:26:53;;;;;;;1.30;0.63;;;17.50;99.90;;;;;;4994378;28;20618;-74
2021/12/30 09:29:19;;;;;;;1.10;0.63;;;17.50;99.90;;;;;;4994196;28;20271;-75
2021/12/30 09:31:48;;;;;;;1.40;0.60;;;17.50;99.90;;;;;;4994468;28;20163;-74
2021/12/30 09:34:14;;;;;;;1.30;0.67;;;17.60;99.90;;;;;;4994781;28;20167;-74
2021/12/30 09:36:41;;;;;;;1.50;0.97;;;17.60;99.90;;;;;;4976854;28;20566;-74
2021/12/30 09:39:10;;;;;;;2.50;0.90;;;17.60;99.90;;;;;;4994105;28;20605;-74
2021/12/30 09:41:43;;;;;;;1.30;0.67;;;17.70;99.90;;;;;;4992144;28;20994;-74
2021/12/30 09:44:10;;;;;;;1.70;0.67;;;17.70;99.90;;;;;;4960033;28;20690;-75
2021/12/30 09:46:37;;;;;;;1.80;0.60;;;17.70;99.90;;;;;;4994135;28;20812;-75
2021/12/30 09:49:05;;;;;;;1.10;0.50;;;17.80;99.90;;;;;;4993730;28;20597;-75
2021/12/30 09:51:31;;;;;;;0.97;0.50;;;17.80;99.90;;;;;;4993956;28;20996;-75
2021/12/30 09:53:58;;;;;;;1.47;0.57;;;17.80;99.90;;;;;;4993845;28;20571;-76
2021/12/30 09:56:23;;;;;;;1.23;0.53;;;17.80;99.90;;;;;;4992324;28;20589;-76
2021/12/30 09:58:50;;;;;;;1.93;0.60;;;17.90;99.90;;;;;;4993529;28;20594;-76
2021/12/30 10:01:16;;;;;;;1.00;0.50;;;17.90;99.90;;;;;;4994058;28;20543;-76
2021/12/30 10:03:42;;;;;;;1.30;0.60;;;18.00;99.90;;;;;;4993429;28;20601;-76
2021/12/30 10:06:10;;;;;;;1.40;0.60;;;18.00;99.90;;;;;;4992874;28;20206;-77
2021/12/30 10:08:41;;;;;;;1.00;0.40;;;18.10;99.90;;;;;;4991209;28;20626;-76
2021/12/30 10:11:14;;;;;;;1.27;0.60;;;18.10;99.90;;;;;;4993358;28;20629;-76
2021/12/30 10:13:56;;;;;;;1.70;0.60;;;18.10;99.90;;;;;;4993466;28;20574;-76
2021/12/30 10:16:24;;;;;;;1.20;0.43;;;18.10;99.90;;;;;;4993184;28;21230;-75
2021/12/30 10:18:55;;;;;;;1.30;0.80;;;18.20;99.90;;;;;;4992520;28;20610;-76
2021/12/30 10:21:23;;;;;;;1.20;0.60;;;18.20;99.90;;;;;;4976135;28;20657;-77
2021/12/30 10:23:52;;;;;;;1.10;0.50;;;18.20;99.90;;;;;;4961034;28;21129;-76
2021/12/30 10:26:18;;;;;;;1.10;0.50;;;18.20;99.90;;;;;;4992932;28;20649;-76
2021/12/30 10:28:47;;;;;;;1.00;0.40;;;18.20;99.90;;;;;;4993316;28;20602;-76
2021/12/30 10:31:13;;;;;;;1.00;0.40;;;18.20;99.90;;;;;;4993235;28;20570;-76
2021/12/30 10:33:57;;;;;;;1.50;0.40;;;18.20;99.90;;;;;;4996116;28;20969;-76
2021/12/30 10:36:32;;;;;;;1.53;0.50;;;18.10;99.90;;;;;;4992927;28;20558;-76
2021/12/30 10:39:21;;;;;;;2.40;1.43;;;18.10;99.90;;;;;;4992848;28;20602;-76
2021/12/30 10:42:15;;;;;;;1.70;1.07;;;18.10;99.90;;;;;;4992883;28;20578;-77
2021/12/30 10:45:02;;;;;;;1.90;1.10;;;18.10;99.90;;;;;;4991557;28;20585;-77
2021/12/30 10:47:31;;;;;;;1.10;0.60;;;18.10;99.90;;;;;;4975653;28;20634;-77
2021/12/30 10:50:09;;;;;;;3.47;0.80;;;18.20;99.90;;;;;;4992844;28;20672;-77
2021/12/30 10:52:47;;;;;;;1.17;0.63;;;18.20;99.90;;;;;;4991906;28;20585;-77
2021/12/30 10:55:13;;;;;;;2.20;1.20;;;18.20;99.90;;;;;;4991718;28;20609;-77
2021/12/30 10:57:39;;;;;;;1.20;0.70;;;18.30;99.90;;;;;;4992645;28;20566;-77
2021/12/30 11:00:08;;;;;;;1.83;0.83;;;18.30;99.90;;;;;;4975209;28;21160;-77
2021/12/30 11:02:35;;;;;;;1.30;0.77;;;18.40;99.90;;;;;;4992351;28;20179;-76
2021/12/30 11:05:09;;;;;;;1.77;0.90;;;18.40;99.90;;;;;;4992515;28;20563;-76
2021/12/30 11:07:47;;;;;;;2.13;1.00;;;18.40;99.90;;;;;;4992389;28;21205;-76
2021/12/30 11:10:14;;;;;;;2.17;1.23;;;18.40;99.90;;;;;;4991400;28;20569;-77
2021/12/30 11:12:46;;;;;;;2.83;1.70;;;18.50;99.90;;;;;;4975121;28;20561;-77
2021/12/30 11:15:21;;;;;;;2.57;1.37;;;18.50;99.90;;;;;;4993053;28;20653;-77
2021/12/30 11:17:47;;;;;;;1.90;1.50;;;18.50;99.90;;;;;;4993144;28;20910;-77
2021/12/30 11:20:16;;;;;;;2.43;1.70;;;18.60;99.90;;;;;;4993747;28;20949;-76
2021/12/30 11:22:43;;;;;;;2.13;1.10;;;18.60;99.90;;;;;;4997519;28;21214;-76
2021/12/30 11:25:12;;;;;;;1.80;1.10;;;18.60;99.90;;;;;;4981399;28;20570;-76
2021/12/30 11:27:38;;;;;;;2.33;1.20;;;18.70;99.90;;;;;;4997318;28;20617;-76
2021/12/30 11:30:09;;;;;;;1.93;1.07;;;18.70;99.90;;;;;;4979650;28;20577;-76
2021/12/30 11:32:36;;;;;;;3.80;1.70;;;18.70;99.90;;;;;;4997132;28;20594;-77
2021/12/30 11:35:03;;;;;;;2.23;0.97;;;18.70;99.90;;;;;;4994798;28;20567;-76
2021/12/30 11:37:30;;;;;;;1.87;0.80;;;18.80;99.90;;;;;;4993504;28;20579;-76
2021/12/30 11:39:59;;;;;;;2.37;1.00;;;18.80;99.90;;;;;;4994777;28;20602;-76
2021/12/30 11:42:46;;;;;;;4.03;1.30;;;18.80;99.90;;;;;;4992989;28;20578;-77
2021/12/30 11:45:37;;;;;;;1.20;0.80;;;18.80;99.90;;;;;;4993100;28;21053;-77
2021/12/30 11:48:05;;;;;;;2.40;1.00;;;18.80;99.90;;;;;;4992416;28;20610;-76
2021/12/30 11:50:37;;;;;;;1.97;0.80;;;18.90;99.90;;;;;;4992167;28;20585;-77
2021/12/30 11:53:12;;;;;;;1.97;0.80;;;18.90;99.90;;;;;;4991834;28;20595;-77
2021/12/30 11:56:16;;;;;;;1.37;0.60;;;19.00;99.90;;;;;;4992181;28;20566;-77
2021/12/30 11:58:50;;;;;;;1.20;0.70;;;19.10;99.90;;;;;;4948973;28;20668;-77
2021/12/30 12:01:17;;;;;;;2.60;0.73;;;19.10;99.90;;;;;;4991593;28;20578;-78
2021/12/30 12:03:44;;;;;;;1.37;0.70;;;19.20;99.90;;;;;;4992605;28;20952;-77
2021/12/30 12:06:28;;;;;;;3.37;0.90;;;19.30;99.90;;;;;;4994629;28;20616;-77
2021/12/30 12:09:13;;;;;;;1.63;0.70;;;19.30;99.90;;;;;;4995517;28;20617;-77
2021/12/30 12:11:55;;;;;;;1.30;0.60;;;19.40;99.90;;;;;;4962045;28;21130;-76
2021/12/30 12:14:22;;;;;;;2.20;0.70;;;19.40;99.90;;;;;;4994863;28;20667;-77
2021/12/30 12:17:12;;;;;;;1.93;1.07;;;19.50;99.90;;;;;;4993986;28;20581;-76
2021/12/30 12:19:49;;;;;;;2.63;0.90;;;19.50;99.90;;;;;;4995000;28;20785;-77
2021/12/30 12:22:35;;;;;;;1.80;1.10;;;19.50;99.90;;;;;;4996521;28;20576;-78
2021/12/30 12:25:12;;;;;;;2.80;1.63;;;19.60;99.90;;;;;;4995092;28;20589;-77
2021/12/30 12:27:41;;;;;;;1.13;0.60;;;19.60;99.90;;;;;;4977908;28;20621;-76
2021/12/30 12:30:20;;;;;;;4.43;0.80;;;19.60;99.90;;;;;;4977768;28;21156;-77
2021/12/30 12:32:47;;;;;;;1.23;0.70;;;19.50;99.90;;;;;;4995134;28;20580;-77
2021/12/30 12:35:18;;;;;;;1.80;0.80;;;19.50;99.90;;;;;;4995187;28;20574;-76
2021/12/30 12:37:47;;;;;;;1.70;0.77;;;19.50;99.90;;;;;;4977661;28;20578;-76
2021/12/30 12:40:23;;;;;;;1.73;0.87;;;19.50;99.90;;;;;;4995242;28;20554;-76
2021/12/30 12:42:52;;;;;;;1.20;0.77;;;19.40;99.90;;;;;;4994884;28;20585;-77
2021/12/30 12:45:50;;;;;;;1.60;0.80;;;19.40;99.90;;;;;;4995132;28;20744;-77
2021/12/30 12:48:20;;;;;;;1.97;0.90;;;19.40;99.90;;;;;;4994986;28;20620;-77
2021/12/30 12:51:00;;;;;;;2.40;1.10;;;19.40;99.90;;;;;;4995118;28;20566;-76
2021/12/30 12:53:28;;;;;;;1.50;0.90;;;19.50;99.90;;;;;;4994989;28;21377;-76
2021/12/30 12:56:19;;;;;;;2.23;0.77;;;19.40;99.90;;;;;;4994944;28;20602;-77